Latest Weather Observations for Albion Park

IDN60801

Issued at 10:32 am EDT Sunday 29 March 2015 (issued every 30 minutes, with the page automatically refreshed every 10 minutes)

About weather observations | Map of weather stations | Latest weather observations for NSW | Other Formats
Station Details ID: 068241 Name: WOLLONGONG AIRPORT Lat: -34.56 Lon: 150.79 Height: 8.0 m
Data from the previous 72 hours. | See also: Recent months at Albion Park
Date/Time
EDT
Temp
°C
App
Temp
°C
Dew
Point
Rel
Hum
%
Delta-T
°C
Wind Press
QNH
hPa
Press
MSL
hPa
Rain
since 9 am
mm
Dir
 
Spd
km/h
Gust
km/h
Spd
kts
Gust
kts
29/10:30am 22.2 20.9 14.8 63 4.4 N 15 20 8 11 1023.3 1023.3 0.0
29/10:00am 20.7 19.5 13.9 65 3.9 N 13 19 7 10 1023.3 1023.3 0.0
29/09:30am 19.3 20.2 14.1 72 3.0 SSW 2 9 1 5 1023.4 1023.4 0.0
29/09:00am 16.2 17.5 14.2 88 1.1 CALM 0 6 0 3 1023.3 1023.3 0.0
29/08:30am 13.8 14.6 13.6 99 0.1 SSW 2 7 1 4 1023.0 1023.0 0.0
29/08:00am 11.7 12.2 11.5 99 0.1 CALM 0 0 0 0 1022.8 1022.8 0.0
29/07:30am 10.5 9.5 10.3 99 0.1 SW 6 7 3 4 1022.7 1022.7 0.0
29/07:00am 10.5 9.5 10.3 99 0.1 SW 6 7 3 4 1022.5 1022.5 0.0
29/06:30am 10.6 9.6 10.4 99 0.1 SW 6 6 3 3 1022.3 1022.3 0.0
29/06:00am 10.2 10.2 9.9 98 0.2 CALM 0 0 0 0 1022.0 1022.0 0.0
29/05:30am 10.3 10.4 10.0 98 0.2 CALM 0 0 0 0 1021.8 1021.8 0.0
29/05:00am 9.9 9.8 9.4 97 0.2 CALM 0 0 0 0 1021.9 1021.9 0.0
29/04:30am 10.6 10.7 10.1 97 0.3 CALM 0 0 0 0 1021.9 1021.9 0.0
29/04:00am 10.9 11.1 10.4 97 0.3 CALM 0 0 0 0 1022.1 1022.1 0.0
29/03:30am 10.9 11.1 10.4 97 0.3 CALM 0 0 0 0 1022.2 1022.2 0.0
29/03:00am 11.3 11.6 11.0 98 0.2 CALM 0 6 0 3 1022.5 1022.5 0.0
29/02:30am 11.2 10.1 10.7 97 0.3 SW 7 9 4 5 1022.7 1022.7 0.0
29/02:00am 11.2 10.1 10.6 96 0.3 SW 7 7 4 4 1022.9 1022.9 0.0
29/01:30am 11.7 12.0 10.9 95 0.4 CALM 0 0 0 0 1023.3 1023.3 0.0
29/01:00am 12.2 10.6 11.6 96 0.3 SW 11 13 6 7 1023.5 1023.5 0.0
29/12:30am 11.9 11.9 11.1 95 0.4 SW 2 7 1 4 1023.4 1023.4 0.0
29/12:00am 12.3 11.1 11.5 95 0.4 SW 9 11 5 6 1023.6 1023.6 0.0
 
Date/Time
EDT
Temp
°C
App
Temp
°C
Dew
Point
Rel
Hum
%
Delta-T
°C
Wind Press
QNH
hPa
Press
MSL
hPa
Rain
since 9 am
mm
Dir
 
Spd
km/h
Gust
km/h
Spd
kts
Gust
kts
28/11:30pm 12.4 12.1 11.5 94 0.5 SW 4 7 2 4 1023.6 1023.6 0.0
28/11:00pm 12.6 12.6 11.3 92 0.7 SW 2 7 1 4 1024.0 1024.0 0.0
28/10:30pm 12.9 11.3 11.6 92 0.7 SW 11 13 6 7 1024.2 1024.2 0.0
28/10:00pm 13.2 13.3 11.4 89 0.9 SW 2 6 1 3 1024.0 1024.0 0.0
28/09:30pm 13.5 11.9 11.7 89 1.0 SSW 11 13 6 7 1024.0 1024.0 0.0
28/09:00pm 14.0 12.5 12.0 88 1.1 SSW 11 11 6 6 1023.7 1023.7 0.0
28/08:30pm 15.0 14.3 12.1 83 1.6 SSW 7 11 4 6 1023.4 1023.4 0.0
28/08:00pm 16.1 15.0 11.9 76 2.3 S 9 11 5 6 1023.2 1023.2 0.0
28/07:30pm 17.4 18.1 12.1 71 2.9 CALM 0 0 0 0 1023.0 1023.0 0.0
28/07:00pm 18.6 18.4 11.9 65 3.7 SE 4 7 2 4 1022.7 1022.7 0.0
28/06:30pm 18.9 17.7 11.7 63 4.0 SSE 9 13 5 7 1022.5 1022.5 0.0
28/06:00pm 19.2 18.0 11.7 62 4.1 ESE 9 15 5 8 1022.3 1022.3 0.0
28/05:30pm 19.7 18.2 12.0 61 4.3 ESE 11 15 6 8 1022.2 1022.2 0.0
28/05:00pm 20.5 18.7 12.2 59 4.6 ESE 13 24 7 13 1022.1 1022.1 0.0
28/04:30pm 20.3 18.4 11.8 58 4.7 SE 13 17 7 9 1022.0 1022.0 0.0
28/04:00pm 20.6 17.8 11.2 55 5.2 E 17 24 9 13 1022.0 1022.0 0.0
28/03:30pm 20.7 18.2 11.1 54 5.3 ESE 15 24 8 13 1022.2 1022.2 0.0
28/03:00pm 21.4 18.5 11.1 52 5.7 E 17 26 9 14 1022.2 1022.2 0.0
28/02:30pm 20.8 18.0 11.4 55 5.2 ESE 17 26 9 14 1022.4 1022.4 0.0
28/02:00pm 21.7 18.5 11.1 51 5.8 ESE 19 28 10 15 1022.6 1022.6 0.0
28/01:30pm 21.5 17.9 10.6 50 6.0 E 20 30 11 16 1022.7 1022.7 0.0
28/01:00pm 21.4 18.1 10.9 51 5.7 ESE 19 24 10 13 1023.1 1023.1 0.0
28/12:30pm 21.8 19.0 10.0 47 6.4 ESE 15 20 8 11 1023.4 1023.4 0.0
28/12:00pm 22.3 20.6 9.8 45 6.7 E 9 19 5 10 1023.5 1023.5 0.0
28/11:30am 21.2 18.8 8.5 44 6.7 ESE 11 17 6 9 1023.6 1023.6 0.0
28/11:00am 21.0 18.6 8.6 45 6.5 S 11 17 6 9 1023.6 1023.6 0.0
28/10:30am 20.6 17.6 7.6 43 6.7 SSW 13 19 7 10 1023.6 1023.6 0.0
28/10:00am 20.2 18.2 6.9 42 6.7 SSE 7 11 4 6 1023.5 1023.5 0.0
28/09:30am 19.1 17.1 7.2 46 6.0 WNW 7 13 4 7 1023.5 1023.5 0.0
28/09:00am 17.0 15.3 9.7 62 3.8 WNW 9 11 5 6 1023.3 1023.3 0.0
28/08:30am 14.2 13.8 8.2 67 3.0 CALM 0 7 0 4 1023.0 1023.0 0.0
28/08:00am 11.9 11.3 9.1 83 1.4 S 2 6 1 3 1022.6 1022.6 0.0
28/07:30am 9.4 8.8 7.3 87 1.0 CALM 0 6 0 3 1022.3 1022.3 0.0
28/07:00am 9.4 8.3 6.8 84 1.2 W 2 9 1 5 1021.9 1021.9 0.0
28/06:30am 10.5 10.0 7.7 83 1.3 CALM 0 6 0 3 1021.6 1021.6 0.0
28/06:00am 9.8 8.6 6.3 79 1.6 W 2 7 1 4 1021.2 1021.2 0.0
28/05:30am 10.7 10.1 7.2 79 1.7 CALM 0 0 0 0 1020.8 1020.8 0.0
28/05:00am 11.2 9.8 7.1 76 1.9 W 4 7 2 4 1020.3 1020.3 0.0
28/04:30am 12.1 10.3 7.2 72 2.4 W 6 7 3 4 1020.2 1020.2 0.0
28/04:00am 15.0 12.4 6.0 55 4.3 WSW 9 13 5 7 1020.0 1020.0 0.0
28/03:30am 14.9 12.3 6.2 56 4.2 SSW 9 15 5 8 1020.1 1020.1 0.0
28/03:00am 15.6 11.9 6.1 53 4.6 SW 15 24 8 13 1020.2 1020.2 0.0
28/02:30am 16.5 11.4 6.1 50 5.1 W 22 30 12 16 1020.3 1020.3 0.0
28/02:00am 16.6 12.0 6.4 51 5.0 WSW 20 26 11 14 1020.2 1020.2 0.0
28/01:30am 17.1 11.7 6.3 49 5.3 W 24 33 13 18 1020.2 1020.2 0.0
28/01:00am 17.2 12.6 6.4 49 5.3 WNW 20 28 11 15 1020.3 1020.3 0.0
28/12:30am 16.5 12.5 6.6 52 4.9 WNW 17 20 9 11 1020.4 1020.4 0.0
28/12:00am 17.5 12.4 6.1 47 5.6 WNW 22 28 12 15 1020.3 1020.3 0.0
 
Date/Time
EDT
Temp
°C
App
Temp
°C
Dew
Point
Rel
Hum
%
Delta-T
°C
Wind Press
QNH
hPa
Press
MSL
hPa
Rain
since 9 am
mm
Dir
 
Spd
km/h
Gust
km/h
Spd
kts
Gust
kts
27/11:30pm 17.5 12.1 6.4 48 5.5 WNW 24 30 13 16 1020.3 1020.3 0.0
27/11:00pm 17.5 12.1 6.4 48 5.4 W 24 32 13 17 1020.2 1020.2 0.0
27/10:30pm 16.7 12.3 6.5 51 5.0 W 19 22 10 12 1020.1 1020.1 0.0
27/10:00pm 16.9 12.5 6.7 51 5.0 W 19 22 10 12 1020.0 1020.0 0.0
27/09:30pm 17.9 13.8 6.4 47 5.7 W 17 24 9 13 1019.8 1019.8 0.0
27/09:00pm 17.4 15.2 6.3 48 5.4 W 7 15 4 8 1019.5 1019.5 0.0
27/08:30pm 18.3 14.9 5.8 44 6.1 WNW 13 20 7 11 1019.1 1019.1 0.0
27/08:00pm 18.8 14.1 6.0 43 6.3 W 20 28 11 15 1018.6 1018.6 0.0
27/07:30pm 19.2 14.1 6.0 42 6.5 W 22 30 12 16 1018.0 1018.0 0.0
27/07:00pm 20.7 14.3 5.1 36 7.6 W 28 35 15 19 1017.5 1017.5 0.0
27/06:30pm 21.6 14.8 5.1 34 8.2 W 30 41 16 22 1017.3 1017.3 0.0
27/06:04pm 22.5 16.0 4.5 31 8.8 W 28 46 15 25 1017.0 - 0.0
27/06:03pm 22.5 16.0 4.5 31 8.8 W 28 46 15 25 1017.0 1017.0 0.0
27/06:00pm 22.6 16.6 5.1 32 8.7 W 26 35 14 19 1017.1 1017.1 0.0
27/05:30pm 23.3 16.4 4.8 30 9.2 W 30 44 16 24 1016.6 1016.6 0.0
27/05:00pm 23.8 17.4 5.2 30 9.3 W 28 37 15 20 1016.5 1016.5 0.0
27/04:30pm 24.3 18.2 6.6 32 9.2 W 28 41 15 22 1016.4 1016.4 0.0
27/04:00pm 24.1 17.6 4.5 28 9.7 WSW 28 41 15 22 1016.7 1016.7 0.0
27/03:30pm 24.0 17.2 4.9 29 9.6 WSW 30 44 16 24 1016.8 1016.8 0.0
27/03:20pm 24.0 16.7 5.4 30 9.4 WSW 33 52 18 28 1016.8 1016.8 0.0
27/03:00pm 24.1 17.8 5.5 30 9.4 W 28 39 15 21 1016.9 1016.9 0.0
27/02:30pm 23.6 16.6 4.0 28 9.6 W 30 44 16 24 1017.0 1017.0 0.0
27/02:00pm 23.9 17.6 7.5 35 8.6 W 30 41 16 22 1017.6 1017.6 0.0
27/01:32pm 23.4 16.4 5.8 32 8.9 W 32 50 17 27 1017.9 1017.9 0.0
27/01:30pm 23.5 16.9 5.9 32 8.9 W 30 41 16 22 1017.9 1017.9 0.0
27/01:00pm 23.1 16.4 5.5 32 8.8 WSW 30 48 16 26 1018.3 1018.3 0.0
27/12:53pm 22.9 16.3 4.4 30 9.1 W 28 48 15 26 1018.2 1018.2 0.0
27/12:30pm 22.4 16.7 4.9 32 8.7 W 24 37 13 20 1018.5 1018.5 0.0
27/12:00pm 22.1 15.3 6.7 37 7.8 WSW 32 52 17 28 1018.8 1018.8 0.0
27/11:59am 22.0 15.1 6.3 36 8.0 WSW 32 52 17 28 1018.8 1018.8 0.0
27/11:51am 21.5 14.5 6.2 37 7.7 WSW 32 44 17 24 1019.0 1019.0 0.0
27/11:30am 21.0 12.7 6.2 38 7.4 W 39 48 21 26 1019.1 1019.1 0.0
27/11:09am 20.9 13.4 6.4 39 7.3 W 35 57 19 31 1019.1 1019.1 0.0
27/11:00am 20.3 12.7 5.9 39 7.1 W 35 52 19 28 1019.2 1019.2 0.0
27/10:30am 19.6 11.3 6.0 41 6.7 W 39 59 21 32 1019.4 1019.4 0.0
27/10:00am 19.1 11.7 6.9 45 6.1 W 35 56 19 30 1019.5 1019.5 0.0
27/09:53am 18.5 10.3 5.0 41 6.5 W 37 56 20 30 1019.4 1019.4 0.0
27/09:30am 18.2 10.1 5.1 42 6.3 W 37 48 20 26 1019.3 1019.3 0.0
27/09:06am 17.6 8.9 4.2 41 6.3 W 39 57 21 31 1019.3 1019.3 0.0
27/09:00am 17.4 9.1 4.0 41 6.3 W 37 46 20 25 1019.2 1019.2 -
27/08:38am 16.7 7.5 3.7 42 6.0 W 41 59 22 32 1019.2 1019.2 -
27/08:30am 16.5 6.4 3.6 42 6.0 W 46 61 25 33 1019.1 1019.1 -
27/08:04am 16.0 8.8 3.1 42 5.9 WSW 30 54 16 29 1018.9 1018.9 -
27/08:00am 15.8 8.3 3.3 43 5.7 WSW 32 48 17 26 1018.9 1018.9 -
27/07:35am 15.4 7.6 2.9 43 5.6 W 33 54 18 29 1018.5 1018.5 -
27/07:30am 15.4 7.2 2.9 43 5.6 W 35 48 19 26 1018.6 1018.6 -
27/07:08am 15.4 8.1 2.6 42 5.7 W 30 54 16 29 1018.4 1018.4 -
27/07:00am 15.1 7.9 3.0 44 5.4 W 30 44 16 24 1018.6 1018.6 -
27/06:38am 15.6 5.3 2.4 41 5.9 W 46 65 25 35 1017.8 1017.8 -
27/06:30am 15.4 4.3 2.2 41 5.9 W 50 65 27 35 1017.5 1017.5 -
27/06:04am 15.3 3.1 2.5 42 5.7 W 56 74 30 40 1017.2 1017.2 -
27/06:00am 15.4 3.0 2.6 42 5.7 W 57 74 31 40 1017.1 1017.1 -
27/05:30am 15.5 3.0 2.0 40 6.0 W 57 76 31 41 1016.5 1016.5 -
27/05:05am 15.7 4.1 1.8 39 6.1 W 52 70 28 38 1017.0 1017.0 -
27/05:00am 15.5 4.3 2.0 40 6.0 W 50 65 27 35 1017.1 1017.1 -
27/04:36am 15.8 4.9 1.5 38 6.3 W 48 69 26 37 1017.5 1017.5 -
27/04:30am 15.7 4.8 1.4 38 6.3 W 48 61 26 33 1017.6 1017.6 -
27/04:00am 15.7 4.1 1.4 38 6.2 W 52 67 28 36 1017.8 1017.8 -
27/03:30am 15.4 5.5 1.5 39 6.1 W 43 56 23 30 1018.0 1018.0 -
27/03:08am 15.8 6.1 0.8 36 6.5 WSW 41 69 22 37 1018.3 1018.3 -
27/03:00am 15.4 7.3 1.2 38 6.2 WSW 33 50 18 27 1018.6 1018.6 0.0
27/02:38am 16.0 8.8 0.6 35 6.6 WSW 28 46 15 25 1018.8 1018.8 -
27/02:30am 15.9 9.1 0.9 36 6.5 WSW 26 39 14 21 1019.1 1019.1 -
27/02:00am 15.8 11.1 0.8 36 6.5 W 15 26 8 14 1019.4 1019.4 -
27/01:30am 15.5 10.4 0.9 37 6.3 W 17 26 9 14 1019.9 1019.9 -
27/01:00am 15.5 9.5 1.3 38 6.2 W 22 30 12 16 1019.9 1019.9 -
27/12:30am 15.2 9.3 1.4 39 6.0 WNW 22 35 12 19 1019.8 1019.8 -
27/12:00am 16.0 8.8 1.0 36 6.5 WNW 28 35 15 19 1019.8 1019.8 -
 
Date/Time
EDT
Temp
°C
App
Temp
°C
Dew
Point
Rel
Hum
%
Delta-T
°C
Wind Press
QNH
hPa
Press
MSL
hPa
Rain
since 9 am
mm
Dir
 
Spd
km/h
Gust
km/h
Spd
kts
Gust
kts
26/11:30pm 16.7 8.6 0.8 34 6.9 W 33 44 18 24 1019.5 1019.5 -
26/11:00pm 16.7 9.6 1.2 35 6.8 W 28 35 15 19 1019.6 1019.6 -
26/10:30pm 16.2 9.2 2.2 39 6.3 W 28 35 15 19 1019.5 1019.5 -
26/10:00pm 16.4 11.2 2.4 39 6.3 W 19 22 10 12 1019.5 1019.5 -
26/09:30pm 17.7 12.3 2.5 36 6.9 W 20 26 11 14 1019.3 1019.3 -
26/09:00pm 17.9 13.7 5.5 44 6.0 W 17 24 9 13 1019.2 1019.2 -
26/08:30pm 17.7 15.1 7.7 52 5.1 WSW 11 19 6 10 1018.6 1018.6 -
26/08:00pm 20.0 16.3 6.4 41 6.8 W 15 24 8 13 1017.9 1017.9 -
26/07:30pm 20.4 16.8 6.7 41 6.9 WSW 15 22 8 12 1017.3 1017.3 -
26/07:00pm 21.1 16.7 6.6 39 7.3 W 19 24 10 13 1016.7 1016.7 -
26/06:30pm 23.2 18.6 6.5 34 8.6 WNW 20 32 11 17 1015.9 1015.9 -
26/06:00pm 24.3 17.6 5.6 30 9.5 W 30 44 16 24 1015.5 1015.5 -
26/05:58pm 24.4 18.0 5.2 29 9.7 W 28 44 15 24 1015.4 1015.4 -
26/05:57pm 24.4 16.7 5.2 29 9.7 W 35 44 19 24 1015.4 - -
26/05:30pm 25.2 20.7 6.9 31 9.6 WNW 20 24 11 13 1015.0 1015.0 -
26/05:06pm 24.9 18.6 5.7 29 9.8 WNW 28 48 15 26 1014.9 1014.9 -
26/05:00pm 25.5 20.2 6.7 30 9.8 WNW 24 32 13 17 1014.8 1014.8 -
26/04:30pm 25.4 19.7 6.6 30 9.8 WNW 26 35 14 19 1014.7 1014.7 -
26/04:11pm 25.0 18.8 6.2 30 9.7 WNW 28 46 15 25 1014.8 - -
26/04:10pm 25.1 18.9 6.3 30 9.7 WNW 28 46 15 25 1014.8 1014.8 -
26/04:00pm 25.4 20.8 8.0 33 9.3 W 22 32 12 17 1014.8 1014.8 -
26/03:30pm 24.6 20.0 6.4 31 9.4 NW 20 33 11 18 1015.0 1015.0 -
26/03:00pm 24.3 18.4 5.6 30 9.5 WNW 26 39 14 21 1015.4 1015.4 -
26/01:00pm 23.7 19.8 6.9 34 8.7 NW 17 28 9 15 1016.3 1016.3 0.0
26/12:30pm 23.5 17.9 7.2 35 8.5 WNW 26 35 14 19 1016.8 1016.8 0.0
26/12:00pm 23.2 17.5 6.9 35 8.4 W 26 37 14 20 1017.1 1017.1 0.0
26/11:30am 23.2 19.4 9.9 43 7.3 NW 20 30 11 16 1017.3 1017.3 0.0
26/11:00am 22.9 17.4 9.0 41 7.4 W 28 35 15 19 1017.5 1017.5 0.0

Other Formats:

Comma delimited format used in spreadsheet applications
http://www.bom.gov.au/fwo/IDN60801/IDN60801.95748.axf

JavaScript Object Notation format (JSON) in row-major order
http://www.bom.gov.au/fwo/IDN60801/IDN60801.95748.json